sensor_id;sensor_type;location;lat;lon;timestamp;P1;durP1;ratioP1;P2;durP2;ratioP2
10410;SDS011;5251;52.112;8.606;2023-03-23T00:02:26;6.15;;;2.42;;
10410;SDS011;5251;52.112;8.606;2023-03-23T00:04:54;2.85;;;2.20;;
10410;SDS011;5251;52.112;8.606;2023-03-23T00:07:20;4.55;;;2.50;;
10410;SDS011;5251;52.112;8.606;2023-03-23T00:09:50;3.90;;;2.47;;
10410;SDS011;5251;52.112;8.606;2023-03-23T00:12:23;4.30;;;2.60;;
10410;SDS011;5251;52.112;8.606;2023-03-23T00:15:00;4.63;;;2.55;;
10410;SDS011;5251;52.112;8.606;2023-03-23T00:17:27;3.20;;;2.60;;
10410;SDS011;5251;52.112;8.606;2023-03-23T00:19:53;4.22;;;2.67;;
10410;SDS011;5251;52.112;8.606;2023-03-23T00:22:19;5.72;;;3.00;;
10410;SDS011;5251;52.112;8.606;2023-03-23T00:24:45;2.70;;;2.38;;
10410;SDS011;5251;52.112;8.606;2023-03-23T00:27:12;3.75;;;2.42;;
10410;SDS011;5251;52.112;8.606;2023-03-23T00:29:39;4.05;;;2.60;;
10410;SDS011;5251;52.112;8.606;2023-03-23T00:32:05;6.03;;;2.80;;
10410;SDS011;5251;52.112;8.606;2023-03-23T00:34:31;4.28;;;2.40;;
10410;SDS011;5251;52.112;8.606;2023-03-23T00:36:59;4.55;;;2.50;;
10410;SDS011;5251;52.112;8.606;2023-03-23T00:39:25;2.85;;;2.55;;
10410;SDS011;5251;52.112;8.606;2023-03-23T00:41:52;5.53;;;2.80;;
10410;SDS011;5251;52.112;8.606;2023-03-23T00:44:25;3.95;;;2.40;;
10410;SDS011;5251;52.112;8.606;2023-03-23T00:46:53;3.95;;;2.65;;
10410;SDS011;5251;52.112;8.606;2023-03-23T00:49:21;3.63;;;2.72;;
10410;SDS011;5251;52.112;8.606;2023-03-23T00:51:51;5.93;;;2.63;;
10410;SDS011;5251;52.112;8.606;2023-03-23T00:54:18;3.80;;;2.33;;
10410;SDS011;5251;52.112;8.606;2023-03-23T00:56:44;2.92;;;2.60;;
10410;SDS011;5251;52.112;8.606;2023-03-23T00:59:10;3.65;;;2.63;;
10410;SDS011;5251;52.112;8.606;2023-03-23T01:01:36;5.75;;;2.63;;
10410;SDS011;5251;52.112;8.606;2023-03-23T01:04:02;2.83;;;2.53;;
10410;SDS011;5251;52.112;8.606;2023-03-23T01:06:36;4.53;;;2.67;;
10410;SDS011;5251;52.112;8.606;2023-03-23T01:09:06;3.83;;;2.45;;
10410;SDS011;5251;52.112;8.606;2023-03-23T01:11:33;2.90;;;2.47;;
10410;SDS011;5251;52.112;8.606;2023-03-23T01:13:59;3.22;;;2.42;;
10410;SDS011;5251;52.112;8.606;2023-03-23T01:16:26;4.55;;;2.55;;
10410;SDS011;5251;52.112;8.606;2023-03-23T01:18:52;2.95;;;2.60;;
10410;SDS011;5251;52.112;8.606;2023-03-23T01:21:19;3.35;;;2.30;;
10410;SDS011;5251;52.112;8.606;2023-03-23T01:23:45;2.97;;;2.53;;
10410;SDS011;5251;52.112;8.606;2023-03-23T01:26:12;4.10;;;2.78;;
10410;SDS011;5251;52.112;8.606;2023-03-23T01:28:39;2.40;;;2.20;;
10410;SDS011;5251;52.112;8.606;2023-03-23T01:31:07;2.85;;;2.40;;
10410;SDS011;5251;52.112;8.606;2023-03-23T01:33:37;2.80;;;2.45;;
10410;SDS011;5251;52.112;8.606;2023-03-23T01:36:07;2.50;;;2.13;;
10410;SDS011;5251;52.112;8.606;2023-03-23T01:38:36;4.05;;;2.10;;
10410;SDS011;5251;52.112;8.606;2023-03-23T01:41:02;4.50;;;2.22;;
10410;SDS011;5251;52.112;8.606;2023-03-23T01:43:28;3.05;;;2.47;;
10410;SDS011;5251;52.112;8.606;2023-03-23T01:45:54;2.30;;;2.10;;
10410;SDS011;5251;52.112;8.606;2023-03-23T01:48:29;3.80;;;2.08;;
10410;SDS011;5251;52.112;8.606;2023-03-23T01:51:05;2.92;;;2.03;;
10410;SDS011;5251;52.112;8.606;2023-03-23T01:53:40;3.78;;;2.35;;
10410;SDS011;5251;52.112;8.606;2023-03-23T01:56:16;2.83;;;2.28;;
10410;SDS011;5251;52.112;8.606;2023-03-23T01:58:45;2.30;;;2.10;;
10410;SDS011;5251;52.112;8.606;2023-03-23T02:01:12;2.38;;;1.90;;
10410;SDS011;5251;52.112;8.606;2023-03-23T02:03:41;3.58;;;2.10;;
10410;SDS011;5251;52.112;8.606;2023-03-23T02:06:10;6.00;;;2.20;;
10410;SDS011;5251;52.112;8.606;2023-03-23T02:08:36;3.47;;;2.00;;
10410;SDS011;5251;52.112;8.606;2023-03-23T02:11:11;3.13;;;2.17;;
10410;SDS011;5251;52.112;8.606;2023-03-23T02:13:41;4.70;;;2.50;;
10410;SDS011;5251;52.112;8.606;2023-03-23T02:16:15;3.47;;;2.85;;
10410;SDS011;5251;52.112;8.606;2023-03-23T02:37:14;3.30;;;2.15;;
10410;SDS011;5251;52.112;8.606;2023-03-23T02:40:06;4.80;;;2.30;;
10410;SDS011;5251;52.112;8.606;2023-03-23T02:42:41;3.38;;;2.30;;
10410;SDS011;5251;52.112;8.606;2023-03-23T02:45:10;2.85;;;2.20;;
10410;SDS011;5251;52.112;8.606;2023-03-23T02:47:39;4.13;;;2.38;;
10410;SDS011;5251;52.112;8.606;2023-03-23T02:50:07;2.58;;;2.05;;
10410;SDS011;5251;52.112;8.606;2023-03-23T02:52:38;3.15;;;2.30;;
10410;SDS011;5251;52.112;8.606;2023-03-23T02:55:06;2.28;;;1.85;;
10410;SDS011;5251;52.112;8.606;2023-03-23T02:57:33;2.90;;;2.20;;
10410;SDS011;5251;52.112;8.606;2023-03-23T03:00:00;2.88;;;2.00;;
10410;SDS011;5251;52.112;8.606;2023-03-23T03:02:29;3.72;;;2.42;;
10410;SDS011;5251;52.112;8.606;2023-03-23T03:05:07;4.85;;;2.30;;
10410;SDS011;5251;52.112;8.606;2023-03-23T03:13:11;4.28;;;2.00;;
10410;SDS011;5251;52.112;8.606;2023-03-23T03:15:42;2.47;;;1.67;;
10410;SDS011;5251;52.112;8.606;2023-03-23T03:18:18;1.83;;;1.65;;
10410;SDS011;5251;52.112;8.606;2023-03-23T03:21:12;2.63;;;1.95;;
10410;SDS011;5251;52.112;8.606;2023-03-23T03:23:39;2.00;;;1.80;;
10410;SDS011;5251;52.112;8.606;2023-03-23T03:26:07;3.22;;;1.90;;
10410;SDS011;5251;52.112;8.606;2023-03-23T03:28:37;3.78;;;2.20;;
10410;SDS011;5251;52.112;8.606;2023-03-23T03:31:04;2.45;;;1.85;;
10410;SDS011;5251;52.112;8.606;2023-03-23T03:33:31;2.75;;;1.85;;
10410;SDS011;5251;52.112;8.606;2023-03-23T03:36:02;2.33;;;1.63;;
10410;SDS011;5251;52.112;8.606;2023-03-23T03:38:40;1.80;;;1.70;;
10410;SDS011;5251;52.112;8.606;2023-03-23T03:41:07;2.88;;;1.77;;
10410;SDS011;5251;52.112;8.606;2023-03-23T03:43:33;1.95;;;1.77;;
10410;SDS011;5251;52.112;8.606;2023-03-23T03:46:00;2.00;;;1.70;;
10410;SDS011;5251;52.112;8.606;2023-03-23T03:48:25;2.92;;;1.60;;
10410;SDS011;5251;52.112;8.606;2023-03-23T03:50:51;2.13;;;1.48;;
10410;SDS011;5251;52.112;8.606;2023-03-23T03:53:17;3.15;;;1.50;;
10410;SDS011;5251;52.112;8.606;2023-03-23T03:55:42;2.63;;;1.55;;
10410;SDS011;5251;52.112;8.606;2023-03-23T03:58:10;2.05;;;1.60;;
10410;SDS011;5251;52.112;8.606;2023-03-23T04:00:35;1.50;;;1.40;;
10410;SDS011;5251;52.112;8.606;2023-03-23T04:03:01;2.85;;;1.85;;
10410;SDS011;5251;52.112;8.606;2023-03-23T04:05:27;3.58;;;1.40;;
10410;SDS011;5251;52.112;8.606;2023-03-23T04:07:53;2.17;;;1.42;;
10410;SDS011;5251;52.112;8.606;2023-03-23T04:10:26;3.92;;;1.80;;
10410;SDS011;5251;52.112;8.606;2023-03-23T04:12:52;2.25;;;1.50;;
10410;SDS011;5251;52.112;8.606;2023-03-23T04:15:18;2.08;;;1.60;;
10410;SDS011;5251;52.112;8.606;2023-03-23T04:17:43;2.25;;;1.52;;
10410;SDS011;5251;52.112;8.606;2023-03-23T04:20:09;1.73;;;1.63;;
10410;SDS011;5251;52.112;8.606;2023-03-23T04:22:45;2.17;;;1.40;;
10410;SDS011;5251;52.112;8.606;2023-03-23T04:25:14;1.85;;;1.50;;
10410;SDS011;5251;52.112;8.606;2023-03-23T04:27:42;2.55;;;1.40;;
10410;SDS011;5251;52.112;8.606;2023-03-23T04:30:11;1.35;;;1.15;;
10410;SDS011;5251;52.112;8.606;2023-03-23T04:32:38;2.08;;;1.40;;
10410;SDS011;5251;52.112;8.606;2023-03-23T04:35:08;1.95;;;1.70;;
10410;SDS011;5251;52.112;8.606;2023-03-23T04:37:36;1.67;;;1.50;;
10410;SDS011;5251;52.112;8.606;2023-03-23T04:40:02;2.15;;;1.60;;
10410;SDS011;5251;52.112;8.606;2023-03-23T04:42:33;1.95;;;1.60;;
10410;SDS011;5251;52.112;8.606;2023-03-23T04:44:59;2.33;;;1.35;;
10410;SDS011;5251;52.112;8.606;2023-03-23T04:47:26;1.70;;;1.30;;
10410;SDS011;5251;52.112;8.606;2023-03-23T04:49:57;1.50;;;1.40;;
10410;SDS011;5251;52.112;8.606;2023-03-23T04:52:26;2.35;;;1.52;;
10410;SDS011;5251;52.112;8.606;2023-03-23T04:54:53;2.20;;;1.60;;
10410;SDS011;5251;52.112;8.606;2023-03-23T04:57:20;2.03;;;1.52;;
10410;SDS011;5251;52.112;8.606;2023-03-23T04:59:47;1.95;;;1.40;;
10410;SDS011;5251;52.112;8.606;2023-03-23T05:02:12;1.48;;;1.33;;
10410;SDS011;5251;52.112;8.606;2023-03-23T05:04:38;1.83;;;1.50;;
10410;SDS011;5251;52.112;8.606;2023-03-23T05:07:05;2.72;;;1.52;;
10410;SDS011;5251;52.112;8.606;2023-03-23T05:09:35;3.17;;;1.40;;
10410;SDS011;5251;52.112;8.606;2023-03-23T05:12:04;1.45;;;1.30;;
10410;SDS011;5251;52.112;8.606;2023-03-23T05:14:31;2.60;;;1.50;;
10410;SDS011;5251;52.112;8.606;2023-03-23T05:16:57;1.50;;;1.40;;
10410;SDS011;5251;52.112;8.606;2023-03-23T05:19:22;1.65;;;1.52;;
10410;SDS011;5251;52.112;8.606;2023-03-23T05:21:48;2.60;;;1.40;;
10410;SDS011;5251;52.112;8.606;2023-03-23T05:24:14;2.13;;;1.58;;
10410;SDS011;5251;52.112;8.606;2023-03-23T05:26:39;2.00;;;1.73;;
10410;SDS011;5251;52.112;8.606;2023-03-23T05:29:05;1.50;;;1.40;;
10410;SDS011;5251;52.112;8.606;2023-03-23T05:31:30;2.58;;;1.50;;
10410;SDS011;5251;52.112;8.606;2023-03-23T05:33:57;3.15;;;1.33;;
10410;SDS011;5251;52.112;8.606;2023-03-23T05:36:22;2.55;;;1.50;;
10410;SDS011;5251;52.112;8.606;2023-03-23T05:38:50;1.95;;;1.75;;
10410;SDS011;5251;52.112;8.606;2023-03-23T05:41:16;1.85;;;1.40;;
10410;SDS011;5251;52.112;8.606;2023-03-23T05:43:42;1.45;;;1.35;;
10410;SDS011;5251;52.112;8.606;2023-03-23T05:46:07;2.00;;;1.30;;
10410;SDS011;5251;52.112;8.606;2023-03-23T05:48:33;1.50;;;1.40;;
10410;SDS011;5251;52.112;8.606;2023-03-23T05:50:59;1.92;;;1.52;;
10410;SDS011;5251;52.112;8.606;2023-03-23T05:53:25;1.80;;;1.38;;
10410;SDS011;5251;52.112;8.606;2023-03-23T05:55:51;1.92;;;1.60;;
10410;SDS011;5251;52.112;8.606;2023-03-23T05:58:17;2.55;;;1.40;;
10410;SDS011;5251;52.112;8.606;2023-03-23T06:00:43;1.83;;;1.50;;
10410;SDS011;5251;52.112;8.606;2023-03-23T06:03:10;1.63;;;1.52;;
10410;SDS011;5251;52.112;8.606;2023-03-23T06:05:41;2.25;;;1.40;;
10410;SDS011;5251;52.112;8.606;2023-03-23T06:08:09;1.48;;;1.35;;
10410;SDS011;5251;52.112;8.606;2023-03-23T06:10:34;2.45;;;1.60;;
10410;SDS011;5251;52.112;8.606;2023-03-23T06:13:01;1.67;;;1.33;;
10410;SDS011;5251;52.112;8.606;2023-03-23T06:15:27;3.67;;;1.40;;
10410;SDS011;5251;52.112;8.606;2023-03-23T06:17:57;2.10;;;1.60;;
10410;SDS011;5251;52.112;8.606;2023-03-23T06:20:23;1.80;;;1.70;;
10410;SDS011;5251;52.112;8.606;2023-03-23T06:22:49;1.83;;;1.50;;
10410;SDS011;5251;52.112;8.606;2023-03-23T06:25:17;1.70;;;1.60;;
10410;SDS011;5251;52.112;8.606;2023-03-23T06:27:42;1.73;;;1.60;;
10410;SDS011;5251;52.112;8.606;2023-03-23T06:30:09;1.50;;;1.40;;
10410;SDS011;5251;52.112;8.606;2023-03-23T06:32:35;1.75;;;1.60;;
10410;SDS011;5251;52.112;8.606;2023-03-23T06:35:03;2.38;;;1.52;;
10410;SDS011;5251;52.112;8.606;2023-03-23T06:37:29;1.83;;;1.60;;
10410;SDS011;5251;52.112;8.606;2023-03-23T06:39:55;2.67;;;1.63;;
10410;SDS011;5251;52.112;8.606;2023-03-23T06:42:22;2.97;;;1.67;;
10410;SDS011;5251;52.112;8.606;2023-03-23T06:44:51;2.97;;;1.85;;
10410;SDS011;5251;52.112;8.606;2023-03-23T06:47:17;1.98;;;1.70;;
10410;SDS011;5251;52.112;8.606;2023-03-23T06:49:43;2.55;;;1.80;;
10410;SDS011;5251;52.112;8.606;2023-03-23T06:52:08;1.88;;;1.70;;
10410;SDS011;5251;52.112;8.606;2023-03-23T06:54:34;1.88;;;1.70;;
10410;SDS011;5251;52.112;8.606;2023-03-23T06:56:59;1.48;;;1.38;;
10410;SDS011;5251;52.112;8.606;2023-03-23T06:59:25;2.00;;;1.70;;
10410;SDS011;5251;52.112;8.606;2023-03-23T07:01:51;1.77;;;1.60;;
10410;SDS011;5251;52.112;8.606;2023-03-23T07:04:17;2.67;;;1.65;;
10410;SDS011;5251;52.112;8.606;2023-03-23T07:06:42;1.95;;;1.42;;
10410;SDS011;5251;52.112;8.606;2023-03-23T07:09:08;1.75;;;1.42;;
10410;SDS011;5251;52.112;8.606;2023-03-23T07:11:34;2.03;;;1.60;;
10410;SDS011;5251;52.112;8.606;2023-03-23T07:13:59;1.80;;;1.50;;
10410;SDS011;5251;52.112;8.606;2023-03-23T07:16:25;1.90;;;1.58;;
10410;SDS011;5251;52.112;8.606;2023-03-23T07:18:51;1.50;;;1.40;;
10410;SDS011;5251;52.112;8.606;2023-03-23T07:21:16;1.77;;;1.60;;
10410;SDS011;5251;52.112;8.606;2023-03-23T07:23:42;2.35;;;1.70;;
10410;SDS011;5251;52.112;8.606;2023-03-23T07:26:07;2.63;;;1.50;;
10410;SDS011;5251;52.112;8.606;2023-03-23T07:28:33;2.50;;;1.60;;
10410;SDS011;5251;52.112;8.606;2023-03-23T07:30:59;2.92;;;1.60;;
10410;SDS011;5251;52.112;8.606;2023-03-23T07:33:25;2.05;;;1.70;;
10410;SDS011;5251;52.112;8.606;2023-03-23T07:35:51;2.17;;;1.50;;
10410;SDS011;5251;52.112;8.606;2023-03-23T07:38:17;3.88;;;2.05;;
10410;SDS011;5251;52.112;8.606;2023-03-23T07:40:43;2.10;;;1.80;;
10410;SDS011;5251;52.112;8.606;2023-03-23T07:43:10;1.70;;;1.50;;
10410;SDS011;5251;52.112;8.606;2023-03-23T07:45:35;1.98;;;1.63;;
10410;SDS011;5251;52.112;8.606;2023-03-23T07:48:01;3.35;;;1.80;;
10410;SDS011;5251;52.112;8.606;2023-03-23T07:50:26;2.10;;;1.67;;
10410;SDS011;5251;52.112;8.606;2023-03-23T07:52:56;2.25;;;1.70;;
10410;SDS011;5251;52.112;8.606;2023-03-23T07:55:22;3.50;;;1.90;;
10410;SDS011;5251;52.112;8.606;2023-03-23T07:57:49;2.85;;;1.85;;
10410;SDS011;5251;52.112;8.606;2023-03-23T08:00:16;1.77;;;1.60;;
10410;SDS011;5251;52.112;8.606;2023-03-23T08:02:48;2.58;;;1.45;;
10410;SDS011;5251;52.112;8.606;2023-03-23T08:05:15;2.30;;;1.70;;
10410;SDS011;5251;52.112;8.606;2023-03-23T08:07:43;2.42;;;1.58;;
10410;SDS011;5251;52.112;8.606;2023-03-23T08:10:10;2.97;;;1.70;;
10410;SDS011;5251;52.112;8.606;2023-03-23T08:12:40;1.58;;;1.48;;
10410;SDS011;5251;52.112;8.606;2023-03-23T08:15:07;2.40;;;1.60;;
10410;SDS011;5251;52.112;8.606;2023-03-23T08:17:37;2.50;;;1.50;;
10410;SDS011;5251;52.112;8.606;2023-03-23T08:20:05;3.15;;;1.65;;
10410;SDS011;5251;52.112;8.606;2023-03-23T08:22:35;2.40;;;1.60;;
10410;SDS011;5251;52.112;8.606;2023-03-23T08:25:03;2.75;;;1.75;;
10410;SDS011;5251;52.112;8.606;2023-03-23T08:27:31;4.18;;;1.55;;
10410;SDS011;5251;52.112;8.606;2023-03-23T08:29:57;2.92;;;1.60;;
10410;SDS011;5251;52.112;8.606;2023-03-23T08:32:22;2.17;;;1.90;;
10410;SDS011;5251;52.112;8.606;2023-03-23T08:34:48;2.72;;;1.70;;
10410;SDS011;5251;52.112;8.606;2023-03-23T08:37:14;3.50;;;1.80;;
10410;SDS011;5251;52.112;8.606;2023-03-23T08:39:41;2.42;;;1.70;;
10410;SDS011;5251;52.112;8.606;2023-03-23T08:42:08;4.20;;;1.98;;
10410;SDS011;5251;52.112;8.606;2023-03-23T08:44:34;2.70;;;1.73;;
10410;SDS011;5251;52.112;8.606;2023-03-23T08:47:01;3.90;;;2.00;;
10410;SDS011;5251;52.112;8.606;2023-03-23T08:49:28;3.33;;;1.60;;
10410;SDS011;5251;52.112;8.606;2023-03-23T08:51:56;2.97;;;1.83;;
10410;SDS011;5251;52.112;8.606;2023-03-23T08:54:21;4.00;;;2.22;;
10410;SDS011;5251;52.112;8.606;2023-03-23T08:56:47;2.92;;;1.80;;
10410;SDS011;5251;52.112;8.606;2023-03-23T08:59:12;2.70;;;1.98;;
10410;SDS011;5251;52.112;8.606;2023-03-23T09:01:38;3.60;;;1.83;;
10410;SDS011;5251;52.112;8.606;2023-03-23T09:04:04;3.10;;;1.70;;
10410;SDS011;5251;52.112;8.606;2023-03-23T09:06:30;3.25;;;1.83;;
10410;SDS011;5251;52.112;8.606;2023-03-23T09:08:55;3.75;;;1.75;;
10410;SDS011;5251;52.112;8.606;2023-03-23T09:11:21;4.18;;;1.92;;
10410;SDS011;5251;52.112;8.606;2023-03-23T09:13:47;2.95;;;1.42;;
10410;SDS011;5251;52.112;8.606;2023-03-23T09:16:13;3.35;;;1.70;;
10410;SDS011;5251;52.112;8.606;2023-03-23T09:18:39;3.25;;;1.60;;
10410;SDS011;5251;52.112;8.606;2023-03-23T09:21:05;2.45;;;1.65;;
10410;SDS011;5251;52.112;8.606;2023-03-23T09:23:31;3.63;;;1.67;;
10410;SDS011;5251;52.112;8.606;2023-03-23T09:25:58;2.83;;;1.70;;
10410;SDS011;5251;52.112;8.606;2023-03-23T09:28:26;5.05;;;2.00;;
10410;SDS011;5251;52.112;8.606;2023-03-23T09:30:51;3.38;;;1.75;;
10410;SDS011;5251;52.112;8.606;2023-03-23T09:33:21;3.67;;;1.83;;
10410;SDS011;5251;52.112;8.606;2023-03-23T09:35:47;3.33;;;1.67;;
10410;SDS011;5251;52.112;8.606;2023-03-23T09:38:12;3.50;;;1.90;;
10410;SDS011;5251;52.112;8.606;2023-03-23T09:40:42;4.32;;;1.80;;
10410;SDS011;5251;52.112;8.606;2023-03-23T09:48:55;1.83;;;1.45;;
10410;SDS011;5251;52.112;8.606;2023-03-23T09:53:58;3.78;;;1.85;;
10410;SDS011;5251;52.112;8.606;2023-03-23T09:56:42;2.83;;;1.65;;
10410;SDS011;5251;52.112;8.606;2023-03-23T09:59:12;3.20;;;1.63;;
10410;SDS011;5251;52.112;8.606;2023-03-23T10:01:45;3.53;;;1.63;;
10410;SDS011;5251;52.112;8.606;2023-03-23T10:07:13;2.65;;;1.60;;
10410;SDS011;5251;52.112;8.606;2023-03-23T10:09:42;4.80;;;1.90;;
10410;SDS011;5251;52.112;8.606;2023-03-23T10:12:28;3.05;;;1.50;;
10410;SDS011;5251;52.112;8.606;2023-03-23T10:15:17;1.90;;;1.50;;
10410;SDS011;5251;52.112;8.606;2023-03-23T10:17:50;3.22;;;1.58;;
10410;SDS011;5251;52.112;8.606;2023-03-23T10:25:51;3.47;;;1.92;;
10410;SDS011;5251;52.112;8.606;2023-03-23T10:28:21;7.13;;;2.22;;
10410;SDS011;5251;52.112;8.606;2023-03-23T10:31:17;2.38;;;1.60;;
10410;SDS011;5251;52.112;8.606;2023-03-23T10:33:49;3.17;;;2.00;;
10410;SDS011;5251;52.112;8.606;2023-03-23T10:36:23;3.78;;;1.80;;
10410;SDS011;5251;52.112;8.606;2023-03-23T10:41:22;5.13;;;1.95;;
10410;SDS011;5251;52.112;8.606;2023-03-23T10:43:47;2.80;;;2.03;;
10410;SDS011;5251;52.112;8.606;2023-03-23T10:46:24;5.60;;;1.90;;
10410;SDS011;5251;52.112;8.606;2023-03-23T10:48:51;4.32;;;2.00;;
10410;SDS011;5251;52.112;8.606;2023-03-23T10:51:20;4.32;;;1.85;;
10410;SDS011;5251;52.112;8.606;2023-03-23T10:53:56;4.15;;;1.73;;
10410;SDS011;5251;52.112;8.606;2023-03-23T10:56:24;17.65;;;2.15;;
10410;SDS011;5251;52.112;8.606;2023-03-23T10:58:53;2.63;;;1.10;;
10410;SDS011;5251;52.112;8.606;2023-03-23T11:01:20;1.15;;;0.85;;
10410;SDS011;5251;52.112;8.606;2023-03-23T11:03:57;4.35;;;1.17;;
10410;SDS011;5251;52.112;8.606;2023-03-23T11:06:29;5.03;;;1.10;;
10410;SDS011;5251;52.112;8.606;2023-03-23T11:09:00;1.83;;;0.90;;
10410;SDS011;5251;52.112;8.606;2023-03-23T11:11:37;0.73;;;0.73;;
10410;SDS011;5251;52.112;8.606;2023-03-23T11:14:18;2.22;;;1.02;;
10410;SDS011;5251;52.112;8.606;2023-03-23T11:16:50;2.20;;;1.00;;
10410;SDS011;5251;52.112;8.606;2023-03-23T11:19:22;1.33;;;0.75;;
10410;SDS011;5251;52.112;8.606;2023-03-23T11:22:06;2.15;;;0.63;;
10410;SDS011;5251;52.112;8.606;2023-03-23T11:24:34;1.27;;;0.80;;
10410;SDS011;5251;52.112;8.606;2023-03-23T11:27:05;0.70;;;0.60;;
10410;SDS011;5251;52.112;8.606;2023-03-23T11:29:33;1.08;;;0.52;;
10410;SDS011;5251;52.112;8.606;2023-03-23T11:32:03;0.68;;;0.55;;
10410;SDS011;5251;52.112;8.606;2023-03-23T11:34:42;1.25;;;0.60;;
10410;SDS011;5251;52.112;8.606;2023-03-23T11:37:12;0.63;;;0.57;;
10410;SDS011;5251;52.112;8.606;2023-03-23T11:39:57;0.65;;;0.43;;
10410;SDS011;5251;52.112;8.606;2023-03-23T11:45:40;3.10;;;0.70;;
10410;SDS011;5251;52.112;8.606;2023-03-23T11:50:51;2.13;;;0.70;;
10410;SDS011;5251;52.112;8.606;2023-03-23T11:53:22;1.77;;;0.73;;
10410;SDS011;5251;52.112;8.606;2023-03-23T11:58:41;3.17;;;0.70;;
10410;SDS011;5251;52.112;8.606;2023-03-23T12:03:58;1.38;;;0.73;;
10410;SDS011;5251;52.112;8.606;2023-03-23T12:14:32;2.80;;;0.98;;
10410;SDS011;5251;52.112;8.606;2023-03-23T12:25:56;1.48;;;0.80;;
10410;SDS011;5251;52.112;8.606;2023-03-23T12:31:17;2.35;;;0.90;;
10410;SDS011;5251;52.112;8.606;2023-03-23T12:33:49;1.05;;;0.70;;
10410;SDS011;5251;52.112;8.606;2023-03-23T12:44:39;2.47;;;0.80;;
10410;SDS011;5251;52.112;8.606;2023-03-23T12:56:03;2.40;;;0.88;;
10410;SDS011;5251;52.112;8.606;2023-03-23T12:58:32;1.92;;;0.90;;
10410;SDS011;5251;52.112;8.606;2023-03-23T13:11:45;1.42;;;0.90;;
10410;SDS011;5251;52.112;8.606;2023-03-23T13:16:44;0.88;;;0.60;;
10410;SDS011;5251;52.112;8.606;2023-03-23T13:19:54;1.20;;;0.70;;
10410;SDS011;5251;52.112;8.606;2023-03-23T13:22:47;1.05;;;0.70;;
10410;SDS011;5251;52.112;8.606;2023-03-23T13:25:28;2.17;;;1.00;;
10410;SDS011;5251;52.112;8.606;2023-03-23T13:28:24;1.05;;;0.70;;
10410;SDS011;5251;52.112;8.606;2023-03-23T13:30:57;1.02;;;0.60;;
10410;SDS011;5251;52.112;8.606;2023-03-23T13:33:29;1.05;;;0.60;;
10410;SDS011;5251;52.112;8.606;2023-03-23T13:36:07;0.93;;;0.60;;
10410;SDS011;5251;52.112;8.606;2023-03-23T13:38:38;1.15;;;0.80;;
10410;SDS011;5251;52.112;8.606;2023-03-23T13:41:11;1.48;;;0.82;;
10410;SDS011;5251;52.112;8.606;2023-03-23T13:43:39;0.93;;;0.70;;
10410;SDS011;5251;52.112;8.606;2023-03-23T13:46:23;1.40;;;0.73;;
10410;SDS011;5251;52.112;8.606;2023-03-23T13:49:02;0.93;;;0.77;;
10410;SDS011;5251;52.112;8.606;2023-03-23T13:51:36;0.90;;;0.80;;
10410;SDS011;5251;52.112;8.606;2023-03-23T13:56:56;0.60;;;0.60;;
10410;SDS011;5251;52.112;8.606;2023-03-23T14:01:51;1.02;;;0.80;;
10410;SDS011;5251;52.112;8.606;2023-03-23T14:04:18;1.25;;;0.70;;
10410;SDS011;5251;52.112;8.606;2023-03-23T14:06:45;1.33;;;0.88;;
10410;SDS011;5251;52.112;8.606;2023-03-23T14:09:17;0.60;;;0.60;;
10410;SDS011;5251;52.112;8.606;2023-03-23T14:11:59;1.75;;;0.70;;
10410;SDS011;5251;52.112;8.606;2023-03-23T14:14:38;0.80;;;0.80;;
10410;SDS011;5251;52.112;8.606;2023-03-23T14:17:13;0.77;;;0.73;;
10410;SDS011;5251;52.112;8.606;2023-03-23T14:19:43;1.00;;;0.90;;
10410;SDS011;5251;52.112;8.606;2023-03-23T14:22:32;1.73;;;0.90;;
10410;SDS011;5251;52.112;8.606;2023-03-23T14:27:40;2.22;;;1.30;;
10410;SDS011;5251;52.112;8.606;2023-03-23T14:30:07;1.17;;;1.10;;
10410;SDS011;5251;52.112;8.606;2023-03-23T14:32:44;1.30;;;1.20;;
10410;SDS011;5251;52.112;8.606;2023-03-23T14:35:16;2.45;;;1.63;;
10410;SDS011;5251;52.112;8.606;2023-03-23T14:38:00;1.48;;;1.38;;
10410;SDS011;5251;52.112;8.606;2023-03-23T14:40:27;1.90;;;1.40;;
10410;SDS011;5251;52.112;8.606;2023-03-23T14:42:54;1.73;;;1.60;;
10410;SDS011;5251;52.112;8.606;2023-03-23T14:45:22;1.50;;;1.40;;
10410;SDS011;5251;52.112;8.606;2023-03-23T14:47:59;1.90;;;1.77;;
10410;SDS011;5251;52.112;8.606;2023-03-23T14:50:27;1.73;;;1.63;;
10410;SDS011;5251;52.112;8.606;2023-03-23T14:55:46;2.40;;;2.10;;
10410;SDS011;5251;52.112;8.606;2023-03-23T14:58:13;2.42;;;2.22;;
10410;SDS011;5251;52.112;8.606;2023-03-23T15:00:45;2.75;;;2.53;;
10410;SDS011;5251;52.112;8.606;2023-03-23T15:03:24;2.83;;;2.50;;
10410;SDS011;5251;52.112;8.606;2023-03-23T15:05:54;2.97;;;2.40;;
10410;SDS011;5251;52.112;8.606;2023-03-23T15:08:27;2.47;;;2.28;;
10410;SDS011;5251;52.112;8.606;2023-03-23T15:11:04;1.98;;;1.88;;
10410;SDS011;5251;52.112;8.606;2023-03-23T15:13:41;2.40;;;2.20;;
10410;SDS011;5251;52.112;8.606;2023-03-23T15:18:49;3.53;;;2.40;;
10410;SDS011;5251;52.112;8.606;2023-03-23T15:21:28;3.10;;;2.40;;
10410;SDS011;5251;52.112;8.606;2023-03-23T15:24:21;2.70;;;2.50;;
10410;SDS011;5251;52.112;8.606;2023-03-23T15:27:03;2.42;;;2.20;;
10410;SDS011;5251;52.112;8.606;2023-03-23T15:29:45;3.60;;;2.53;;
10410;SDS011;5251;52.112;8.606;2023-03-23T15:32:12;2.55;;;2.35;;
10410;SDS011;5251;52.112;8.606;2023-03-23T15:34:38;2.00;;;1.80;;
10410;SDS011;5251;52.112;8.606;2023-03-23T15:37:05;2.20;;;2.00;;
10410;SDS011;5251;52.112;8.606;2023-03-23T15:39:43;2.30;;;2.10;;
10410;SDS011;5251;52.112;8.606;2023-03-23T15:44:58;2.33;;;2.10;;
10410;SDS011;5251;52.112;8.606;2023-03-23T15:47:34;2.28;;;2.08;;
10410;SDS011;5251;52.112;8.606;2023-03-23T15:50:03;2.58;;;1.77;;
10410;SDS011;5251;52.112;8.606;2023-03-23T15:52:33;3.10;;;2.08;;
10410;SDS011;5251;52.112;8.606;2023-03-23T15:54:59;2.95;;;2.15;;
10410;SDS011;5251;52.112;8.606;2023-03-23T15:57:24;3.92;;;2.10;;
10410;SDS011;5251;52.112;8.606;2023-03-23T15:59:50;1.65;;;1.55;;
10410;SDS011;5251;52.112;8.606;2023-03-23T16:02:17;3.17;;;2.08;;
10410;SDS011;5251;52.112;8.606;2023-03-23T16:04:46;3.15;;;1.80;;
10410;SDS011;5251;52.112;8.606;2023-03-23T16:07:12;3.15;;;1.83;;
10410;SDS011;5251;52.112;8.606;2023-03-23T16:09:38;2.88;;;1.85;;
10410;SDS011;5251;52.112;8.606;2023-03-23T16:12:10;3.60;;;2.15;;
10410;SDS011;5251;52.112;8.606;2023-03-23T16:14:39;4.53;;;2.33;;
10410;SDS011;5251;52.112;8.606;2023-03-23T16:17:07;2.92;;;2.17;;
10410;SDS011;5251;52.112;8.606;2023-03-23T16:19:37;4.35;;;2.20;;
10410;SDS011;5251;52.112;8.606;2023-03-23T16:22:03;3.30;;;2.00;;
10410;SDS011;5251;52.112;8.606;2023-03-23T16:24:29;3.92;;;2.17;;
10410;SDS011;5251;52.112;8.606;2023-03-23T16:26:54;3.17;;;1.98;;
10410;SDS011;5251;52.112;8.606;2023-03-23T16:29:20;3.35;;;2.30;;
10410;SDS011;5251;52.112;8.606;2023-03-23T16:31:45;2.75;;;2.47;;
10410;SDS011;5251;52.112;8.606;2023-03-23T16:34:11;3.83;;;2.60;;
10410;SDS011;5251;52.112;8.606;2023-03-23T16:36:37;3.17;;;2.15;;
10410;SDS011;5251;52.112;8.606;2023-03-23T16:39:03;2.67;;;2.30;;
10410;SDS011;5251;52.112;8.606;2023-03-23T16:41:28;4.60;;;2.90;;
10410;SDS011;5251;52.112;8.606;2023-03-23T16:43:54;4.10;;;2.80;;
10410;SDS011;5251;52.112;8.606;2023-03-23T16:46:20;3.22;;;2.83;;
10410;SDS011;5251;52.112;8.606;2023-03-23T16:48:46;4.80;;;2.50;;
10410;SDS011;5251;52.112;8.606;2023-03-23T16:51:11;3.05;;;2.45;;
10410;SDS011;5251;52.112;8.606;2023-03-23T16:53:37;3.35;;;2.60;;
10410;SDS011;5251;52.112;8.606;2023-03-23T16:56:02;3.03;;;2.50;;
10410;SDS011;5251;52.112;8.606;2023-03-23T16:58:28;2.47;;;2.28;;
10410;SDS011;5251;52.112;8.606;2023-03-23T17:00:54;4.28;;;2.50;;
10410;SDS011;5251;52.112;8.606;2023-03-23T17:03:20;2.92;;;2.63;;
10410;SDS011;5251;52.112;8.606;2023-03-23T17:05:46;4.00;;;3.15;;
10410;SDS011;5251;52.112;8.606;2023-03-23T17:08:13;3.13;;;2.40;;
10410;SDS011;5251;52.112;8.606;2023-03-23T17:10:39;4.57;;;2.72;;
10410;SDS011;5251;52.112;8.606;2023-03-23T17:13:06;3.17;;;2.42;;
10410;SDS011;5251;52.112;8.606;2023-03-23T17:15:32;3.47;;;2.78;;